»·PEaware :: N855WA UT53-KSLC

N855WA :: UT53-KSLC

FLIGHT INFORMATION

Flight Status: Arrived
Operator: Privately registered:
United States
More flights under this callsign
Pilot: Oshane D. (17945)
Aircraft: SOCATA TBM-900
(TBM9)
More flights by this aircraft type
Origin: UT53 Sky Ranch
United States
Destination: KSLC Salt Lake City Intl
United States
More flights between these airports :: More routes between these airports
Route: +HELPR LEEHY5
File this flight plan on PilotEdge
Remarks:
Altitude:
(Current/Filed)
28,000ft
Speed:
(Current/Filed)
316kts
Departed: 08-Nov-19 02:27 PM
Arrived: 08-Nov-19 03:21 PM
Distance/Time
Traveled:
180nm/0:54
Distance/Time
To Go:
Arrived

Flight Plot

Page will automatically refresh every two minutes.

Flight plan parsing failed; only flown route is shown


Map Options




Map Legend


Flown Route
Filed Route
Departure Airport
Arrival Airport
Navaid (VOR, NDB)
Fix

Horizontal Profiles

Position Reports

Time Latitude Longitude Heading Altitude Ground
Speed
08-Nov-19 14:16 38.484745 -109.447395 330 4884ft 0kts
08-Nov-19 14:17 38.484745 -109.447395 330 4884ft 0kts
08-Nov-19 14:18 38.484745 -109.447395 330 4884ft 0kts
08-Nov-19 14:19 38.484745 -109.447395 330 4884ft 0kts
08-Nov-19 14:20 38.484745 -109.447395 330 4884ft 0kts
08-Nov-19 14:21 38.484745 -109.447395 330 4884ft 0kts
08-Nov-19 14:22 38.484753 -109.447401 330 4884ft 0kts
08-Nov-19 14:23 38.486549 -109.448717 328 4878ft 11kts
08-Nov-19 14:24 38.489270 -109.450809 334 4878ft 8kts
08-Nov-19 14:25 38.491754 -109.451962 331 4878ft 13kts
08-Nov-19 14:26 38.488170 -109.449184 150 4878ft 107kts
08-Nov-19 14:27 38.473130 -109.422178 22 6430ft 137kts
08-Nov-19 14:28 38.496986 -109.453661 316 7960ft 138kts
08-Nov-19 14:29 38.525928 -109.487545 317 9355ft 142kts
08-Nov-19 14:30 38.554470 -109.522737 317 10685ft 143kts
08-Nov-19 14:31 38.582550 -109.558805 317 12191ft 141kts
08-Nov-19 14:32 38.610690 -109.594086 318 13428ft 142kts
08-Nov-19 14:33 38.639666 -109.630129 318 14796ft 146kts
08-Nov-19 14:34 38.671279 -109.663496 329 16197ft 153kts
08-Nov-19 14:35 38.706252 -109.690610 329 17857ft 145kts
08-Nov-19 14:36 38.741412 -109.717704 329 19241ft 149kts
08-Nov-19 14:37 38.777603 -109.745314 329 20465ft 154kts
08-Nov-19 14:38 38.814464 -109.775145 328 21779ft 157kts
08-Nov-19 14:39 38.851905 -109.805881 328 22981ft 161kts
08-Nov-19 14:41 38.890012 -109.837044 328 24073ft 164kts
08-Nov-19 14:42 38.929029 -109.868759 328 25071ft 166kts
08-Nov-19 14:43 38.969012 -109.901276 329 26138ft 171kts
08-Nov-19 14:44 39.009626 -109.934356 329 27275ft 181kts
08-Nov-19 14:45 39.053054 -109.969784 329 28428ft 199kts
08-Nov-19 14:46 39.106264 -110.013263 329 28429ft 244kts
08-Nov-19 14:47 39.166567 -110.062633 329 28422ft 264kts
08-Nov-19 14:48 39.229717 -110.114422 329 28415ft 271kts
08-Nov-19 14:49 39.293874 -110.167163 329 28413ft 273kts
08-Nov-19 14:50 39.358980 -110.220803 329 28415ft 278kts
08-Nov-19 14:51 39.424512 -110.274908 329 28412ft 280kts
08-Nov-19 14:52 39.490541 -110.329554 329 28412ft 280kts
08-Nov-19 14:53 39.556273 -110.384080 329 28413ft 280kts
08-Nov-19 14:54 39.621969 -110.438698 329 28420ft 279kts
08-Nov-19 14:55 39.687480 -110.493288 329 28427ft 279kts
08-Nov-19 14:56 39.751295 -110.551970 312 28423ft 283kts
08-Nov-19 14:57 39.789462 -110.643144 300 28427ft 287kts
08-Nov-19 14:58 39.825259 -110.736740 299 28428ft 288kts
08-Nov-19 14:59 39.861724 -110.832488 299 27720ft 307kts
08-Nov-19 15:00 39.900785 -110.935502 298 26300ft 321kts
08-Nov-19 15:00 39.933988 -111.023347 298 25095ft 324kts
08-Nov-19 15:01 39.973935 -111.129372 298 23648ft 325kts
08-Nov-19 15:03 40.020534 -111.253504 298 21692ft 320kts
08-Nov-19 15:03 40.052017 -111.337981 298 19981ft 297kts
08-Nov-19 15:04 40.083980 -111.434121 299 17906ft 281kts
08-Nov-19 15:06 40.126460 -111.538554 299 16077ft 276kts
08-Nov-19 15:06 40.154128 -111.612377 297 16035ft 266kts
08-Nov-19 15:07 40.189518 -111.696834 314 16034ft 261kts
08-Nov-19 15:08 40.242508 -111.767721 314 14561ft 282kts
08-Nov-19 15:09 40.298743 -111.836283 331 12523ft 256kts
08-Nov-19 15:10 40.358119 -111.877471 331 11016ft 221kts
08-Nov-19 15:11 40.410563 -111.914011 331 11038ft 213kts
08-Nov-19 15:12 40.470160 -111.927819 353 10122ft 216kts
08-Nov-19 15:13 40.524381 -111.934051 354 9181ft 195kts
08-Nov-19 15:14 40.574317 -111.940802 354 8159ft 164kts
08-Nov-19 15:15 40.617481 -111.945363 354 7315ft 150kts
08-Nov-19 15:16 40.658830 -111.949790 355 6521ft 148kts
08-Nov-19 15:17 40.699998 -111.954193 355 5708ft 148kts
08-Nov-19 15:18 40.740195 -111.958486 352 4975ft 124kts
08-Nov-19 15:19 40.771136 -111.961993 357 4279ft 92kts
08-Nov-19 15:20 40.782403 -111.961463 77 4221ft 13kts
08-Nov-19 15:21 40.782249 -111.960138 134 4221ft 11kts
08-Nov-19 15:22 40.778810 -111.959207 118 4222ft 9kts
08-Nov-19 15:23 40.777309 -111.959099 167 4222ft 6kts
08-Nov-19 15:24 40.777013 -111.959084 178 4222ft 0kts
08-Nov-19 15:25 40.777013 -111.959084 178 4222ft 0kts
08-Nov-19 15:26 40.777014 -111.959084 178 4222ft 0kts
08-Nov-19 15:27 40.777014 -111.959084 178 4222ft 0kts

Navigation Log

Ident Type
Flight plan parsing failed, navigation log unavailable